createdAt,value
2022-11-27T00:01:00.326Z,7.30
2022-11-27T00:03:28.839Z,7.30
2022-11-27T00:05:59.874Z,6.37
2022-11-27T00:08:28.204Z,6.80
2022-11-27T00:10:56.564Z,6.17
2022-11-27T00:13:25.118Z,6.17
2022-11-27T00:15:53.853Z,6.60
2022-11-27T00:18:25.435Z,6.13
2022-11-27T00:20:56.614Z,6.23
2022-11-27T00:23:26.483Z,5.93
2022-11-27T00:25:55.227Z,5.93
2022-11-27T00:28:25.811Z,5.70
2022-11-27T00:30:57.491Z,5.80
2022-11-27T00:33:26.048Z,5.33
2022-11-27T00:35:54.383Z,5.30
2022-11-27T00:38:22.790Z,5.37
2022-11-27T00:40:52.820Z,5.80
2022-11-27T00:43:21.181Z,4.83
2022-11-27T00:45:50.775Z,5.57
2022-11-27T00:48:19.237Z,5.00
2022-11-27T00:50:47.564Z,4.97
2022-11-27T00:53:16.456Z,4.87
2022-11-27T00:55:44.930Z,5.57
2022-11-27T00:58:14.785Z,4.80
2022-11-27T01:00:46.058Z,5.00
2022-11-27T01:03:14.720Z,5.60
2022-11-27T01:05:43.222Z,5.30
2022-11-27T01:08:11.568Z,4.87
2022-11-27T01:10:42.149Z,5.20
2022-11-27T01:13:22.083Z,5.53
2022-11-27T01:15:59.602Z,4.47
2022-11-27T01:18:28.103Z,4.33
2022-11-27T01:20:56.583Z,4.90
2022-11-27T01:23:28.096Z,4.40
2022-11-27T01:25:56.603Z,4.97
2022-11-27T01:28:26.483Z,5.17
2022-11-27T01:30:57.765Z,5.13
2022-11-27T01:33:26.691Z,4.50
2022-11-27T01:35:56.423Z,5.10
2022-11-27T01:38:24.941Z,4.83
2022-11-27T01:40:59.754Z,4.50
2022-11-27T01:43:40.017Z,4.63
2022-11-27T01:46:10.331Z,4.97
2022-11-27T01:48:40.381Z,5.13
2022-11-27T01:51:12.363Z,4.53
2022-11-27T01:53:40.837Z,5.10
2022-11-27T01:56:09.772Z,5.37
2022-11-27T01:58:40.932Z,5.00
2022-11-27T02:01:09.475Z,5.07
2022-11-27T02:03:42.292Z,5.33
2022-11-27T02:06:11.385Z,5.40
2022-11-27T02:08:44.751Z,4.93
2022-11-27T02:11:34.146Z,5.07
2022-11-27T02:14:08.037Z,4.60
2022-11-27T02:16:38.801Z,6.27
2022-11-27T02:19:08.998Z,5.57
2022-11-27T02:21:40.459Z,5.93
2022-11-27T02:24:18.346Z,4.50
2022-11-27T02:26:52.576Z,4.60
2022-11-27T02:29:22.573Z,5.00
2022-11-27T02:31:54.211Z,4.83
2022-11-27T02:34:24.933Z,4.80
2022-11-27T02:36:55.127Z,5.00
2022-11-27T02:39:24.692Z,5.00
2022-11-27T02:41:56.171Z,5.73
2022-11-27T02:44:26.093Z,4.80
2022-11-27T02:46:54.951Z,4.97
2022-11-27T02:49:25.159Z,4.40
2022-11-27T02:51:54.457Z,5.70
2022-11-27T02:54:23.966Z,4.40
2022-11-27T02:56:52.430Z,4.73
2022-11-27T02:59:20.729Z,4.63
2022-11-27T03:01:52.056Z,4.77
2022-11-27T03:04:21.101Z,4.53
2022-11-27T03:06:49.912Z,4.97
2022-11-27T03:09:19.244Z,4.90
2022-11-27T03:11:47.539Z,4.53
2022-11-27T03:14:24.617Z,5.00
2022-11-27T03:16:58.019Z,4.50
2022-11-27T03:19:27.687Z,4.60
2022-11-27T03:21:57.539Z,4.63
2022-11-27T03:24:26.112Z,4.47
2022-11-27T03:26:54.587Z,4.10
2022-11-27T03:29:23.679Z,4.30
2022-11-27T03:31:52.164Z,4.77
2022-11-27T03:34:22.015Z,4.40
2022-11-27T03:36:50.688Z,4.17
2022-11-27T03:39:19.057Z,4.47
2022-11-27T03:41:48.926Z,4.30
2022-11-27T03:44:19.780Z,4.10
2022-11-27T03:46:48.729Z,4.33
2022-11-27T03:49:20.395Z,4.30
2022-11-27T03:51:51.774Z,4.40
2022-11-27T03:54:21.609Z,4.10
2022-11-27T03:56:52.701Z,4.20
2022-11-27T03:59:21.984Z,4.73
2022-11-27T04:01:50.570Z,3.70
2022-11-27T04:04:19.112Z,3.73
2022-11-27T04:06:47.501Z,4.20
2022-11-27T04:09:19.406Z,3.93
2022-11-27T04:11:47.954Z,4.00
2022-11-27T04:14:17.744Z,4.10
2022-11-27T04:16:47.195Z,4.47
2022-11-27T04:19:15.489Z,3.90
2022-11-27T04:21:43.750Z,4.13
2022-11-27T04:24:12.233Z,4.70
2022-11-27T04:26:41.905Z,3.63
2022-11-27T04:29:10.346Z,4.57
2022-11-27T04:31:38.945Z,4.13
2022-11-27T04:34:07.290Z,4.43
2022-11-27T04:36:39.412Z,4.57
2022-11-27T04:39:08.182Z,4.27
2022-11-27T04:41:36.628Z,4.23
2022-11-27T04:44:06.646Z,3.90
2022-11-27T04:46:35.060Z,4.10
2022-11-27T04:49:03.521Z,4.03
2022-11-27T04:51:31.989Z,3.57
2022-11-27T04:54:00.326Z,3.30
2022-11-27T04:56:28.776Z,3.20
2022-11-27T04:58:57.089Z,3.17
2022-11-27T05:01:27.355Z,3.37
2022-11-27T05:03:56.177Z,2.97
2022-11-27T05:06:24.756Z,3.80
2022-11-27T05:08:59.619Z,3.10
2022-11-27T05:11:28.374Z,2.90
2022-11-27T05:14:10.572Z,3.40
2022-11-27T05:16:40.353Z,3.10
2022-11-27T05:19:08.696Z,2.73
2022-11-27T05:21:37.122Z,2.87
2022-11-27T05:24:05.599Z,2.77
2022-11-27T05:26:36.191Z,2.40
2022-11-27T05:29:04.761Z,2.77
2022-11-27T05:31:33.270Z,3.60
2022-11-27T05:34:03.136Z,3.20
2022-11-27T05:36:31.569Z,2.93
2022-11-27T05:39:00.473Z,2.60
2022-11-27T05:41:28.741Z,2.67
2022-11-27T05:43:57.127Z,3.20
2022-11-27T05:46:26.670Z,3.33
2022-11-27T05:48:55.134Z,3.50
2022-11-27T05:51:25.119Z,3.37
2022-11-27T05:53:53.374Z,3.23
2022-11-27T05:56:21.673Z,3.13
2022-11-27T05:58:51.220Z,3.27
2022-11-27T06:01:19.749Z,3.60
2022-11-27T06:03:48.204Z,3.67
2022-11-27T06:06:18.734Z,3.77
2022-11-27T06:08:48.822Z,3.83
2022-11-27T06:11:18.257Z,3.23
2022-11-27T06:13:46.575Z,3.10
2022-11-27T06:16:15.731Z,3.60
2022-11-27T06:18:44.083Z,3.30
2022-11-27T06:21:12.677Z,3.63
2022-11-27T06:23:41.219Z,3.80
2022-11-27T06:26:15.365Z,3.40
2022-11-27T06:28:48.428Z,3.13
2022-11-27T06:31:18.317Z,3.40
2022-11-27T06:33:47.140Z,3.20
2022-11-27T06:36:15.526Z,3.50
2022-11-27T06:38:43.826Z,3.73
2022-11-27T06:41:12.699Z,3.27
2022-11-27T06:43:42.401Z,3.57
2022-11-27T06:46:11.684Z,3.60
2022-11-27T06:48:40.161Z,3.13
2022-11-27T06:51:08.883Z,3.57
2022-11-27T06:53:37.855Z,3.10
2022-11-27T06:56:08.867Z,3.40
2022-11-27T06:58:37.451Z,3.40
2022-11-27T07:01:08.439Z,3.27
2022-11-27T07:03:37.128Z,3.33
2022-11-27T07:06:06.643Z,3.57
2022-11-27T07:08:38.537Z,3.20
2022-11-27T07:11:07.387Z,3.20
2022-11-27T07:13:35.866Z,3.33
2022-11-27T07:16:04.290Z,3.20
2022-11-27T07:18:36.301Z,3.20
2022-11-27T07:21:04.685Z,3.40
2022-11-27T07:23:45.185Z,4.27
2022-11-27T07:26:14.297Z,2.83
2022-11-27T07:28:43.874Z,3.67
2022-11-27T07:31:12.601Z,3.17
2022-11-27T07:33:42.703Z,3.40
2022-11-27T07:36:15.009Z,3.17
2022-11-27T07:38:43.578Z,3.57
2022-11-27T07:41:12.009Z,3.20
2022-11-27T07:43:40.457Z,3.20
2022-11-27T07:46:09.191Z,3.53
2022-11-27T07:48:38.077Z,4.00
2022-11-27T07:51:09.064Z,3.87
2022-11-27T07:53:38.263Z,3.77
2022-11-27T07:56:07.237Z,3.40
2022-11-27T07:58:35.737Z,3.50
2022-11-27T08:01:07.676Z,3.50
2022-11-27T08:03:40.528Z,3.70
2022-11-27T08:06:16.580Z,3.83
2022-11-27T08:08:45.086Z,3.07
2022-11-27T08:11:17.116Z,3.60
2022-11-27T08:13:45.613Z,3.33
2022-11-27T08:16:14.161Z,3.43
2022-11-27T08:18:42.678Z,3.73
2022-11-27T08:21:11.356Z,3.13
2022-11-27T08:23:41.054Z,3.33
2022-11-27T08:26:09.775Z,3.50
2022-11-27T08:28:38.420Z,3.50
2022-11-27T08:31:09.317Z,3.77
2022-11-27T08:33:37.726Z,3.73
2022-11-27T08:36:09.040Z,3.60
2022-11-27T08:38:39.092Z,3.90
2022-11-27T08:41:09.024Z,3.53
2022-11-27T08:43:37.490Z,3.97
2022-11-27T08:46:06.037Z,4.50
2022-11-27T08:48:34.453Z,4.07
2022-11-27T08:51:06.230Z,4.47
2022-11-27T08:53:34.643Z,3.87
2022-11-27T08:56:06.731Z,3.70
2022-11-27T08:58:41.195Z,3.93
2022-11-27T09:01:14.356Z,3.93
2022-11-27T09:03:43.736Z,4.17
2022-11-27T09:06:12.807Z,3.80
2022-11-27T09:08:41.475Z,3.87
2022-11-27T09:11:09.997Z,3.80
2022-11-27T09:13:40.436Z,4.17
2022-11-27T09:16:13.001Z,3.70
2022-11-27T09:18:41.828Z,3.80
2022-11-27T09:21:10.847Z,4.47
2022-11-27T09:23:39.823Z,4.57
2022-11-27T09:26:09.003Z,4.43
2022-11-27T09:28:41.624Z,4.37
2022-11-27T09:31:19.878Z,4.90
2022-11-27T09:33:48.507Z,4.97
2022-11-27T09:36:21.024Z,3.73
2022-11-27T09:38:49.503Z,4.17
2022-11-27T09:41:22.641Z,4.53
2022-11-27T09:43:53.365Z,4.60
2022-11-27T09:46:23.428Z,4.47
2022-11-27T09:48:51.873Z,4.70
2022-11-27T09:51:25.611Z,4.83
2022-11-27T09:53:55.885Z,4.83
2022-11-27T09:56:24.449Z,6.20
2022-11-27T09:58:57.149Z,5.00
2022-11-27T10:01:32.297Z,4.83
2022-11-27T10:04:04.136Z,5.40
2022-11-27T10:06:36.053Z,5.33
2022-11-27T10:09:10.178Z,4.80
2022-11-27T10:11:44.147Z,4.43
2022-11-27T10:14:24.289Z,4.77
2022-11-27T10:16:54.984Z,4.67
2022-11-27T10:19:29.462Z,4.57
2022-11-27T10:22:17.921Z,4.93
2022-11-27T10:24:51.263Z,4.50
2022-11-27T10:27:21.253Z,5.27
2022-11-27T10:29:53.394Z,4.80
2022-11-27T10:32:53.605Z,4.83
2022-11-27T10:35:13.929Z,4.87
2022-11-27T10:37:45.522Z,5.33
2022-11-27T10:40:31.157Z,5.90
2022-11-27T10:43:03.172Z,5.33
2022-11-27T10:45:52.707Z,5.70
2022-11-27T10:48:25.930Z,6.00
2022-11-27T10:51:02.958Z,6.80
2022-11-27T10:53:35.375Z,6.13
2022-11-27T10:56:09.647Z,6.83
2022-11-27T10:58:56.317Z,6.47
2022-11-27T11:01:40.202Z,7.07
2022-11-27T11:04:39.728Z,6.53
2022-11-27T11:07:30.309Z,6.33
2022-11-27T11:10:01.357Z,6.87
2022-11-27T11:12:35.114Z,6.60
2022-11-27T11:15:05.126Z,7.10
2022-11-27T11:17:34.882Z,6.63
2022-11-27T11:20:04.935Z,7.33
2022-11-27T11:22:33.234Z,7.43
2022-11-27T11:25:01.538Z,7.20
2022-11-27T11:27:30.600Z,7.90
2022-11-27T11:30:00.364Z,8.17
2022-11-27T11:32:29.231Z,7.57
2022-11-27T11:35:01.158Z,6.13
2022-11-27T11:37:31.621Z,7.40
2022-11-27T11:40:00.372Z,7.17
2022-11-27T11:42:29.563Z,7.93
2022-11-27T11:45:02.818Z,7.30
2022-11-27T11:47:31.123Z,7.33
2022-11-27T11:49:59.562Z,7.73
2022-11-27T11:52:32.898Z,7.20
2022-11-27T11:55:02.115Z,7.40
2022-11-27T11:57:36.212Z,6.70
2022-11-27T12:00:10.121Z,7.43
2022-11-27T12:02:43.623Z,7.20
2022-11-27T12:05:21.230Z,7.23
2022-11-27T12:07:54.518Z,6.83
2022-11-27T12:10:24.286Z,7.20
2022-11-27T12:12:57.843Z,7.40
2022-11-27T12:15:28.234Z,7.50
2022-11-27T12:17:58.879Z,8.00
2022-11-27T12:20:28.812Z,6.77
2022-11-27T12:23:07.390Z,7.50
2022-11-27T12:25:37.393Z,6.37
2022-11-27T12:28:10.279Z,7.30
2022-11-27T12:30:44.093Z,7.90
2022-11-27T12:33:17.039Z,8.13
2022-11-27T12:35:51.339Z,8.37
2022-11-27T12:38:29.392Z,8.50
2022-11-27T12:41:04.924Z,8.30
2022-11-27T12:43:38.456Z,8.60
2022-11-27T12:46:08.481Z,7.93
2022-11-27T12:48:37.446Z,8.10
2022-11-27T12:51:06.478Z,7.87
2022-11-27T12:53:37.095Z,8.80
2022-11-27T12:56:09.192Z,8.23
2022-11-27T12:58:39.237Z,8.33
2022-11-27T13:01:08.555Z,6.90
2022-11-27T13:03:38.309Z,7.17
2022-11-27T13:06:18.638Z,6.80
2022-11-27T13:08:52.844Z,6.90
2022-11-27T13:11:22.086Z,6.70
2022-11-27T13:13:51.598Z,6.00
2022-11-27T13:16:24.116Z,6.20
2022-11-27T13:18:52.747Z,6.00
2022-11-27T13:21:22.819Z,6.23
2022-11-27T13:23:53.109Z,6.03
2022-11-27T13:26:26.272Z,5.93
2022-11-27T13:28:57.117Z,6.60
2022-11-27T13:31:26.073Z,6.47
2022-11-27T13:33:54.993Z,5.83
2022-11-27T13:36:48.395Z,6.93
2022-11-27T13:39:26.257Z,6.33
2022-11-27T13:42:01.628Z,5.83
2022-11-27T13:44:30.592Z,6.30
2022-11-27T13:47:00.372Z,6.00
2022-11-27T13:49:31.171Z,6.53
2022-11-27T13:52:07.186Z,6.80
2022-11-27T13:54:37.810Z,6.20
2022-11-27T13:57:15.703Z,6.97
2022-11-27T13:59:44.187Z,7.00
2022-11-27T14:02:12.791Z,6.80
2022-11-27T14:04:56.394Z,5.80
2022-11-27T14:07:25.746Z,5.80
2022-11-27T14:09:56.474Z,5.37
2022-11-27T14:12:25.984Z,6.13
2022-11-27T14:15:04.755Z,6.80
2022-11-27T14:17:40.327Z,6.53
2022-11-27T14:20:22.033Z,5.87
2022-11-27T14:25:41.322Z,5.40
2022-11-27T14:28:13.206Z,5.30
2022-11-27T14:30:42.431Z,6.33
2022-11-27T14:33:17.747Z,6.23
2022-11-27T14:35:49.236Z,6.60
2022-11-27T14:38:19.190Z,6.50
2022-11-27T14:40:49.513Z,6.87
2022-11-27T14:43:18.653Z,6.80
2022-11-27T14:45:48.434Z,6.80
2022-11-27T14:48:21.913Z,7.23
2022-11-27T14:50:50.934Z,7.70
2022-11-27T14:53:20.589Z,8.33
2022-11-27T14:55:50.411Z,7.10
2022-11-27T14:58:20.377Z,8.40
2022-11-27T15:01:00.037Z,7.33
2022-11-27T15:03:29.545Z,7.40
2022-11-27T15:05:59.256Z,7.23
2022-11-27T15:08:28.374Z,7.80
2022-11-27T15:10:58.982Z,6.70
2022-11-27T15:13:28.461Z,7.67
2022-11-27T15:15:58.859Z,6.63
2022-11-27T15:18:27.828Z,7.13
2022-11-27T15:20:56.476Z,7.57
2022-11-27T15:23:25.706Z,7.60
2022-11-27T15:25:54.667Z,8.67
2022-11-27T15:28:31.839Z,9.33
2022-11-27T15:31:00.304Z,9.60
2022-11-27T15:33:29.195Z,9.83
2022-11-27T15:36:08.706Z,10.70
2022-11-27T15:38:37.305Z,10.40
2022-11-27T15:41:05.928Z,11.67
2022-11-27T15:43:35.763Z,11.03
2022-11-27T15:46:08.557Z,10.70
2022-11-27T15:48:37.080Z,11.80
2022-11-27T15:51:05.915Z,10.73
2022-11-27T15:53:34.350Z,11.50
2022-11-27T15:56:02.868Z,10.57
2022-11-27T15:58:31.352Z,10.10
2022-11-27T16:01:01.348Z,10.53
2022-11-27T16:03:30.291Z,9.27
2022-11-27T16:05:59.082Z,8.83
2022-11-27T16:08:27.795Z,8.50
2022-11-27T16:10:57.067Z,7.90
2022-11-27T16:13:25.638Z,10.20
2022-11-27T16:15:54.497Z,9.57
2022-11-27T16:18:25.032Z,8.90
2022-11-27T16:20:53.810Z,9.07
2022-11-27T16:23:22.248Z,9.27
2022-11-27T16:25:50.790Z,7.40
2022-11-27T16:28:19.292Z,8.47
2022-11-27T16:30:48.101Z,8.03
2022-11-27T16:33:19.914Z,9.07
2022-11-27T16:35:49.934Z,7.73
2022-11-27T16:38:18.430Z,9.50
2022-11-27T16:40:46.843Z,8.80
2022-11-27T16:43:15.640Z,8.10
2022-11-27T16:45:44.299Z,9.03
2022-11-27T16:48:13.256Z,8.30
2022-11-27T16:50:42.076Z,7.60
2022-11-27T16:53:12.750Z,7.70
2022-11-27T16:55:41.095Z,8.60
2022-11-27T16:58:09.559Z,9.67
2022-11-27T17:00:38.244Z,9.70
2022-11-27T17:03:06.888Z,9.77
2022-11-27T17:05:38.545Z,9.23
2022-11-27T17:08:07.279Z,10.07
2022-11-27T17:10:37.232Z,8.97
2022-11-27T17:13:06.044Z,9.20
2022-11-27T17:15:40.531Z,9.57
2022-11-27T17:18:09.605Z,9.40
2022-11-27T17:20:38.728Z,9.00
2022-11-27T17:23:07.454Z,8.87
2022-11-27T17:25:37.377Z,9.87
2022-11-27T17:28:06.073Z,9.40
2022-11-27T17:30:39.089Z,8.90
2022-11-27T17:33:07.955Z,8.93
2022-11-27T17:35:36.479Z,9.20
2022-11-27T17:38:05.050Z,9.37
2022-11-27T17:40:33.728Z,9.57
2022-11-27T17:43:03.745Z,9.23
2022-11-27T17:45:32.513Z,9.07
2022-11-27T17:48:02.013Z,9.40
2022-11-27T17:50:30.634Z,8.43
2022-11-27T17:52:59.200Z,9.73
2022-11-27T17:55:27.969Z,9.87
2022-11-27T17:57:57.420Z,8.57
2022-11-27T18:00:27.641Z,8.70
2022-11-27T18:02:56.467Z,9.17
2022-11-27T18:05:25.353Z,9.43
2022-11-27T18:07:53.994Z,9.37
2022-11-27T18:10:22.977Z,11.13
2022-11-27T18:12:51.527Z,9.57
2022-11-27T18:15:20.273Z,9.93
2022-11-27T18:17:53.198Z,10.30
2022-11-27T18:20:21.782Z,10.03
2022-11-27T18:22:52.572Z,10.17
2022-11-27T18:25:21.712Z,9.93
2022-11-27T18:27:50.694Z,9.63
2022-11-27T18:30:19.384Z,9.00
2022-11-27T18:32:48.068Z,10.00
2022-11-27T18:35:18.027Z,10.53
2022-11-27T18:37:46.909Z,10.27
2022-11-27T18:40:18.250Z,10.20
2022-11-27T18:42:46.760Z,9.70
2022-11-27T18:45:31.830Z,10.87
2022-11-27T18:48:02.368Z,10.13
2022-11-27T18:50:32.482Z,11.03
2022-11-27T18:53:01.192Z,10.60
2022-11-27T18:55:51.535Z,9.93
2022-11-27T18:58:21.704Z,11.73
2022-11-27T19:00:53.767Z,11.27
2022-11-27T19:03:26.778Z,11.80
2022-11-27T19:05:57.240Z,12.20
2022-11-27T19:08:25.988Z,11.70
2022-11-27T19:10:54.827Z,12.17
2022-11-27T19:13:23.368Z,13.00
2022-11-27T19:15:52.464Z,12.23
2022-11-27T19:18:21.127Z,12.60
2022-11-27T19:20:49.659Z,12.50
2022-11-27T19:23:19.934Z,12.60
2022-11-27T19:25:55.445Z,13.43
2022-11-27T19:28:23.953Z,12.67
2022-11-27T19:30:53.217Z,12.33
2022-11-27T19:33:22.563Z,11.90
2022-11-27T19:35:51.907Z,12.03
2022-11-27T19:38:22.549Z,14.10
2022-11-27T19:40:51.824Z,14.17
2022-11-27T19:43:20.864Z,14.40
2022-11-27T19:45:49.662Z,12.00
2022-11-27T19:48:22.894Z,12.17
2022-11-27T19:50:52.107Z,11.50
2022-11-27T19:53:22.961Z,12.93
2022-11-27T19:55:55.230Z,11.20
2022-11-27T19:58:24.241Z,10.40
2022-11-27T20:00:52.909Z,11.93
2022-11-27T20:03:21.826Z,11.97
2022-11-27T20:05:54.348Z,11.90
2022-11-27T20:08:27.058Z,11.20
2022-11-27T20:10:56.148Z,10.67
2022-11-27T20:13:24.965Z,11.03
2022-11-27T20:15:54.317Z,11.60
2022-11-27T20:18:22.900Z,12.10
2022-11-27T20:20:51.625Z,13.50
2022-11-27T20:23:20.737Z,13.83
2022-11-27T20:25:51.510Z,12.90
2022-11-27T20:28:20.084Z,12.67
2022-11-27T20:30:48.974Z,15.73
2022-11-27T20:33:21.399Z,16.97
2022-11-27T20:35:50.164Z,14.53
2022-11-27T20:38:19.563Z,12.70
2022-11-27T20:40:48.501Z,12.73
2022-11-27T20:43:18.589Z,12.93
2022-11-27T20:45:47.660Z,12.87
2022-11-27T20:48:16.574Z,12.40
2022-11-27T20:50:51.029Z,12.13
2022-11-27T20:53:20.134Z,11.90
2022-11-27T20:55:49.021Z,11.80
2022-11-27T20:58:21.328Z,11.23
2022-11-27T21:00:53.749Z,11.77
2022-11-27T21:03:22.314Z,12.43
2022-11-27T21:05:52.693Z,11.77
2022-11-27T21:08:21.253Z,12.27
2022-11-27T21:10:53.605Z,11.83
2022-11-27T21:13:24.273Z,11.97
2022-11-27T21:15:53.392Z,11.53
2022-11-27T21:18:22.003Z,12.63
2022-11-27T21:20:50.605Z,11.80
2022-11-27T21:23:20.741Z,12.20
2022-11-27T21:25:49.203Z,12.57
2022-11-27T21:28:17.538Z,12.67
2022-11-27T21:30:47.901Z,13.20
2022-11-27T21:33:16.493Z,12.60
2022-11-27T21:35:45.113Z,12.47
2022-11-27T21:38:13.808Z,12.57
2022-11-27T21:40:42.585Z,12.33
2022-11-27T21:43:11.241Z,13.70
2022-11-27T21:45:40.377Z,12.97
2022-11-27T21:48:14.438Z,12.90
2022-11-27T21:50:43.329Z,13.47
2022-11-27T21:53:12.069Z,13.10
2022-11-27T21:55:41.715Z,12.60
2022-11-27T21:58:12.564Z,13.63
2022-11-27T22:00:41.389Z,13.40
2022-11-27T22:03:11.502Z,13.80
2022-11-27T22:05:40.190Z,13.10
2022-11-27T22:08:08.966Z,13.93
2022-11-27T22:10:37.580Z,14.07
2022-11-27T22:13:05.979Z,14.43
2022-11-27T22:15:34.807Z,13.67
2022-11-27T22:18:03.527Z,13.90
2022-11-27T22:20:33.336Z,14.43
2022-11-27T22:23:02.074Z,14.30
2022-11-27T22:25:30.744Z,14.27
2022-11-27T22:27:59.346Z,13.90
2022-11-27T22:30:28.159Z,14.87
2022-11-27T22:32:56.592Z,15.63
2022-11-27T22:35:25.389Z,15.53
2022-11-27T22:37:55.766Z,16.20
2022-11-27T22:40:24.555Z,16.50
2022-11-27T22:42:53.604Z,15.07
2022-11-27T22:45:22.102Z,15.47
2022-11-27T22:47:51.060Z,16.37
2022-11-27T22:50:19.949Z,16.00
2022-11-27T22:52:48.501Z,16.30
2022-11-27T22:55:18.738Z,15.80
2022-11-27T22:57:47.354Z,15.93
2022-11-27T23:00:16.300Z,16.07
2022-11-27T23:02:45.255Z,16.27
2022-11-27T23:05:13.700Z,16.27
2022-11-27T23:07:42.454Z,17.03
2022-11-27T23:10:11.469Z,16.07
2022-11-27T23:12:41.277Z,16.30
2022-11-27T23:15:10.142Z,15.90
2022-11-27T23:17:38.764Z,15.60
2022-11-27T23:20:08.786Z,16.63
2022-11-27T23:22:37.248Z,16.40
2022-11-27T23:25:06.287Z,16.67
2022-11-27T23:27:34.762Z,16.60
2022-11-27T23:30:04.740Z,17.37
2022-11-27T23:32:33.898Z,16.77
2022-11-27T23:35:02.517Z,16.77
2022-11-27T23:37:30.968Z,15.80
2022-11-27T23:39:59.648Z,16.77
2022-11-27T23:42:28.260Z,16.77
2022-11-27T23:44:56.957Z,16.23
2022-11-27T23:47:26.783Z,16.63
2022-11-27T23:49:55.134Z,16.23
2022-11-27T23:52:24.230Z,15.93
2022-11-27T23:54:52.923Z,16.47
2022-11-27T23:57:25.123Z,15.83
2022-11-27T23:59:53.828Z,16.13
